createdAt,value
2023-05-25T00:00:57.476Z,63.35
2023-05-25T00:03:32.577Z,63.41
2023-05-25T00:06:01.847Z,63.45
2023-05-25T00:08:30.157Z,63.57
2023-05-25T00:10:58.291Z,63.69
2023-05-25T00:13:26.234Z,63.74
2023-05-25T00:15:54.212Z,63.88
2023-05-25T00:18:22.346Z,63.94
2023-05-25T00:20:54.221Z,64.01
2023-05-25T00:23:22.320Z,64.01
2023-05-25T00:25:50.516Z,64.16
2023-05-25T00:28:18.512Z,64.21
2023-05-25T00:30:46.576Z,64.26
2023-05-25T00:33:16.054Z,64.25
2023-05-25T00:35:44.776Z,64.33
2023-05-25T00:38:14.496Z,64.36
2023-05-25T00:40:42.642Z,64.42
2023-05-25T00:43:11.873Z,64.45
2023-05-25T00:45:40.339Z,64.49
2023-05-25T00:48:09.329Z,64.50
2023-05-25T00:50:47.538Z,64.57
2023-05-25T00:53:15.659Z,64.71
2023-05-25T00:56:05.232Z,64.68
2023-05-25T00:58:36.312Z,64.83
2023-05-25T01:01:06.497Z,64.77
2023-05-25T01:03:38.092Z,64.89
2023-05-25T01:06:14.198Z,64.97
2023-05-25T01:08:45.819Z,64.90
2023-05-25T01:11:16.301Z,64.97
2023-05-25T01:13:46.338Z,65.12
2023-05-25T01:16:16.699Z,65.10
2023-05-25T01:18:44.701Z,65.10
2023-05-25T01:21:20.403Z,65.10
2023-05-25T01:24:00.377Z,65.26
2023-05-25T01:26:31.984Z,65.36
2023-05-25T01:29:02.761Z,65.37
2023-05-25T01:31:31.801Z,65.30
2023-05-25T01:34:00.042Z,65.38
2023-05-25T01:36:28.094Z,65.47
2023-05-25T01:38:57.805Z,65.52
2023-05-25T01:41:27.184Z,65.50
2023-05-25T01:43:55.286Z,65.57
2023-05-25T01:46:37.301Z,65.66
2023-05-25T01:49:29.698Z,65.63
2023-05-25T01:52:10.804Z,65.71
2023-05-25T01:54:44.693Z,65.78
2023-05-25T01:57:16.074Z,65.87
2023-05-25T01:59:46.539Z,65.88
2023-05-25T02:02:17.723Z,65.95
2023-05-25T02:04:47.640Z,66.00
2023-05-25T02:07:17.234Z,66.01
2023-05-25T02:09:45.769Z,66.08
2023-05-25T02:12:13.778Z,66.04
2023-05-25T02:14:41.816Z,66.04
2023-05-25T02:17:12.784Z,66.23
2023-05-25T02:19:40.845Z,66.19
2023-05-25T02:22:08.838Z,66.27
2023-05-25T02:24:38.131Z,66.22
2023-05-25T02:27:06.721Z,66.26
2023-05-25T02:29:34.748Z,66.32
2023-05-25T02:32:02.837Z,66.34
2023-05-25T02:34:30.831Z,66.39
2023-05-25T02:36:58.835Z,66.49
2023-05-25T02:39:28.014Z,66.61
2023-05-25T02:41:56.803Z,66.54
2023-05-25T02:44:24.822Z,66.51
2023-05-25T02:46:53.190Z,66.58
2023-05-25T02:49:21.189Z,66.64
2023-05-25T02:51:49.393Z,66.73
2023-05-25T02:54:17.622Z,66.69
2023-05-25T02:56:46.624Z,66.86
2023-05-25T02:59:15.903Z,66.95
2023-05-25T03:01:43.937Z,66.90
2023-05-25T03:04:31.272Z,66.97
2023-05-25T03:06:59.764Z,67.01
2023-05-25T03:09:27.808Z,66.99
2023-05-25T03:11:56.104Z,66.99
2023-05-25T03:14:25.322Z,67.10
2023-05-25T03:16:57.854Z,67.18
2023-05-25T03:19:27.446Z,67.16
2023-05-25T03:21:55.661Z,67.36
2023-05-25T03:24:23.721Z,67.55
2023-05-25T03:26:51.929Z,67.67
2023-05-25T03:29:19.919Z,67.63
2023-05-25T03:31:48.152Z,67.82
2023-05-25T03:34:16.556Z,67.77
2023-05-25T03:36:46.086Z,68.01
2023-05-25T03:39:14.893Z,68.06
2023-05-25T03:41:44.387Z,68.21
2023-05-25T03:44:12.736Z,68.26
2023-05-25T03:46:41.776Z,68.18
2023-05-25T03:49:13.984Z,68.22
2023-05-25T03:51:42.914Z,68.21
2023-05-25T03:54:11.428Z,68.11
2023-05-25T03:56:39.416Z,68.11
2023-05-25T03:59:07.459Z,67.92
2023-05-25T04:01:38.241Z,68.00
2023-05-25T04:04:06.852Z,67.98
2023-05-25T04:06:37.362Z,67.73
2023-05-25T04:09:05.604Z,67.81
2023-05-25T04:11:34.706Z,67.77
2023-05-25T04:14:02.802Z,67.37
2023-05-25T04:16:34.513Z,67.07
2023-05-25T04:19:03.777Z,66.79
2023-05-25T04:21:32.913Z,66.20
2023-05-25T04:24:01.381Z,66.18
2023-05-25T04:26:29.775Z,66.38
2023-05-25T04:32:03.303Z,65.61
2023-05-25T04:35:07.141Z,65.21
2023-05-25T04:37:41.790Z,65.10
2023-05-25T04:40:14.289Z,64.43
2023-05-25T04:42:43.364Z,64.21
2023-05-25T04:45:11.835Z,64.49
2023-05-25T04:47:41.259Z,64.56
2023-05-25T04:50:11.084Z,64.26
2023-05-25T04:52:39.459Z,64.32
2023-05-25T04:55:10.437Z,64.08
2023-05-25T04:57:42.242Z,63.61
2023-05-25T05:00:12.372Z,63.40
2023-05-25T05:02:41.665Z,63.05
2023-05-25T05:05:10.203Z,62.88
2023-05-25T05:07:38.391Z,62.91
2023-05-25T05:10:06.995Z,62.63
2023-05-25T05:12:36.249Z,62.56
2023-05-25T05:15:04.724Z,61.89
2023-05-25T05:17:34.150Z,61.62
2023-05-25T05:20:02.546Z,61.52
2023-05-25T05:22:30.784Z,61.81
2023-05-25T05:24:59.280Z,61.91
2023-05-25T05:27:27.429Z,61.85
2023-05-25T05:30:01.689Z,62.09
2023-05-25T05:32:29.736Z,63.68
2023-05-25T05:34:58.590Z,64.34
2023-05-25T05:37:42.063Z,64.08
2023-05-25T05:40:10.945Z,62.74
2023-05-25T05:42:40.414Z,62.50
2023-05-25T05:45:10.303Z,62.85
2023-05-25T05:47:38.850Z,62.76
2023-05-25T05:50:07.416Z,62.57
2023-05-25T05:52:36.614Z,62.06
2023-05-25T05:55:06.404Z,62.09
2023-05-25T05:57:34.686Z,62.61
2023-05-25T06:00:06.667Z,61.76
2023-05-25T06:02:43.304Z,61.68
2023-05-25T06:05:13.426Z,61.51
2023-05-25T06:07:42.940Z,61.71
2023-05-25T06:10:11.036Z,60.96
2023-05-25T06:12:39.199Z,60.80
2023-05-25T06:15:07.930Z,61.16
2023-05-25T06:17:37.533Z,60.19
2023-05-25T06:20:06.802Z,60.08
2023-05-25T06:22:35.148Z,59.91
2023-05-25T06:25:03.604Z,59.50
2023-05-25T06:27:31.579Z,59.15
2023-05-25T06:29:59.524Z,59.22
2023-05-25T06:32:27.588Z,59.07
2023-05-25T06:34:55.978Z,59.09
2023-05-25T06:37:24.133Z,58.82
2023-05-25T06:39:52.162Z,58.70
2023-05-25T06:42:20.182Z,58.52
2023-05-25T06:44:57.195Z,58.48
2023-05-25T06:47:26.702Z,58.12
2023-05-25T06:49:55.186Z,57.76
2023-05-25T06:52:23.172Z,57.38
2023-05-25T06:54:51.066Z,57.13
2023-05-25T06:57:19.071Z,57.16
2023-05-25T06:59:47.014Z,56.85
2023-05-25T07:02:15.117Z,56.53
2023-05-25T07:04:43.161Z,56.32
2023-05-25T07:07:12.647Z,56.13
2023-05-25T07:09:41.686Z,56.07
2023-05-25T07:12:11.151Z,55.62
2023-05-25T07:14:39.098Z,55.22
2023-05-25T07:17:07.178Z,55.47
2023-05-25T07:19:35.133Z,55.56
2023-05-25T07:22:03.136Z,54.28
2023-05-25T07:24:31.051Z,54.25
2023-05-25T07:26:59.036Z,54.24
2023-05-25T07:29:26.996Z,55.18
2023-05-25T07:31:55.025Z,55.78
2023-05-25T07:34:23.351Z,54.82
2023-05-25T07:36:51.846Z,54.35
2023-05-25T07:39:19.799Z,54.64
2023-05-25T07:41:47.756Z,54.57
2023-05-25T07:44:15.731Z,54.46
2023-05-25T07:46:44.125Z,53.93
2023-05-25T07:49:16.008Z,54.04
2023-05-25T07:51:44.980Z,53.93
2023-05-25T07:54:13.022Z,53.21
2023-05-25T07:56:41.001Z,53.14
2023-05-25T07:59:08.998Z,53.34
2023-05-25T08:01:39.086Z,54.18
2023-05-25T08:04:07.217Z,54.24
2023-05-25T08:06:35.312Z,54.18
2023-05-25T08:09:04.898Z,54.13
2023-05-25T08:11:32.886Z,54.56
2023-05-25T08:14:00.830Z,54.30
2023-05-25T08:16:28.785Z,54.06
2023-05-25T08:18:56.813Z,53.68
2023-05-25T08:21:24.699Z,53.71
2023-05-25T08:23:53.996Z,53.25
2023-05-25T08:28:53.788Z,53.80
2023-05-25T08:31:21.972Z,53.86
2023-05-25T08:33:50.064Z,53.74
2023-05-25T08:36:18.099Z,53.99
2023-05-25T08:38:46.043Z,53.77
2023-05-25T08:41:14.264Z,53.79
2023-05-25T08:43:42.837Z,53.40
2023-05-25T08:46:10.921Z,53.03
2023-05-25T08:48:42.764Z,52.62
2023-05-25T08:51:13.895Z,52.61
2023-05-25T08:53:43.812Z,53.80
2023-05-25T08:56:20.332Z,53.13
2023-05-25T08:59:04.821Z,52.44
2023-05-25T09:01:40.461Z,52.81
2023-05-25T09:04:09.338Z,51.87
2023-05-25T09:06:38.627Z,52.34
2023-05-25T09:09:07.576Z,52.64
2023-05-25T09:11:39.657Z,52.76
2023-05-25T09:14:09.148Z,52.28
2023-05-25T09:16:38.484Z,52.84
2023-05-25T09:19:06.521Z,52.76
2023-05-25T09:21:34.747Z,52.90
2023-05-25T09:24:03.058Z,53.16
2023-05-25T09:26:31.202Z,52.48
2023-05-25T09:28:59.149Z,51.18
2023-05-25T09:31:28.396Z,51.88
2023-05-25T09:34:00.168Z,52.44
2023-05-25T09:36:28.636Z,51.85
2023-05-25T09:38:56.918Z,51.54
2023-05-25T09:41:27.748Z,51.97
2023-05-25T09:44:09.686Z,52.39
2023-05-25T09:46:39.636Z,52.30
2023-05-25T09:49:09.451Z,51.88
2023-05-25T09:51:38.333Z,51.47
2023-05-25T09:54:10.563Z,51.07
2023-05-25T09:56:38.563Z,51.26
2023-05-25T09:59:06.634Z,51.64
2023-05-25T10:01:35.172Z,50.71
2023-05-25T10:04:05.157Z,51.06
2023-05-25T10:06:33.987Z,51.38
2023-05-25T10:09:05.062Z,51.70
2023-05-25T10:11:36.235Z,51.63
2023-05-25T10:14:07.700Z,51.79
2023-05-25T10:16:41.490Z,51.57
2023-05-25T10:19:23.043Z,51.20
2023-05-25T10:22:16.132Z,51.21
2023-05-25T10:24:55.408Z,51.15
2023-05-25T10:27:29.031Z,50.81
2023-05-25T10:29:57.765Z,50.81
2023-05-25T10:32:27.197Z,51.10
2023-05-25T10:34:57.506Z,50.99
2023-05-25T10:37:28.350Z,50.96
2023-05-25T10:39:58.191Z,51.02
2023-05-25T10:42:27.879Z,50.61
2023-05-25T10:44:57.219Z,50.67
2023-05-25T10:47:25.733Z,50.28
2023-05-25T10:49:56.607Z,50.66
2023-05-25T10:52:32.100Z,50.53
2023-05-25T10:55:02.123Z,49.97
2023-05-25T10:57:30.475Z,50.43
2023-05-25T11:00:08.445Z,50.66
2023-05-25T11:02:51.371Z,50.59
2023-05-25T11:05:31.621Z,50.40
2023-05-25T11:08:01.614Z,49.88
2023-05-25T11:10:48.074Z,49.63
2023-05-25T11:13:31.061Z,50.19
2023-05-25T11:16:09.361Z,50.08
2023-05-25T11:18:41.599Z,49.86
2023-05-25T11:21:22.105Z,50.08
2023-05-25T11:23:57.938Z,50.04
2023-05-25T11:26:30.843Z,50.63
2023-05-25T11:29:00.591Z,49.64
2023-05-25T11:31:32.377Z,49.29
2023-05-25T11:34:07.387Z,49.56
2023-05-25T11:36:36.543Z,49.45
2023-05-25T11:39:11.605Z,49.64
2023-05-25T11:41:52.321Z,50.13
2023-05-25T11:44:31.631Z,49.54
2023-05-25T11:47:08.666Z,49.31
2023-05-25T11:49:49.707Z,49.36
2023-05-25T11:52:19.293Z,49.54
2023-05-25T11:54:47.662Z,49.86
2023-05-25T11:57:20.636Z,49.20
2023-05-25T11:59:53.263Z,49.48
2023-05-25T12:02:22.468Z,49.95
2023-05-25T12:04:55.867Z,49.98
2023-05-25T12:07:24.299Z,49.63
2023-05-25T12:09:53.018Z,49.81
2023-05-25T12:12:21.345Z,49.84
2023-05-25T12:14:50.520Z,50.16
2023-05-25T12:17:21.200Z,50.49
2023-05-25T12:19:49.840Z,50.01
2023-05-25T12:22:17.879Z,49.85
2023-05-25T12:24:45.865Z,49.77
2023-05-25T12:27:18.687Z,50.20
2023-05-25T12:29:48.388Z,50.03
2023-05-25T12:32:16.577Z,49.94
2023-05-25T12:34:45.257Z,49.80
2023-05-25T12:37:21.489Z,49.43
2023-05-25T12:39:50.689Z,49.60
2023-05-25T12:42:18.870Z,49.39
2023-05-25T12:44:47.055Z,49.57
2023-05-25T12:47:16.044Z,49.62
2023-05-25T12:49:45.683Z,50.12
2023-05-25T12:52:37.048Z,49.83
2023-05-25T12:55:27.555Z,49.98
2023-05-25T12:58:07.885Z,49.85
2023-05-25T13:00:41.019Z,50.15
2023-05-25T13:03:09.326Z,49.62
2023-05-25T13:05:38.363Z,49.79
2023-05-25T13:08:07.088Z,49.70
2023-05-25T13:10:37.878Z,50.08
2023-05-25T13:13:06.009Z,49.78
2023-05-25T13:15:34.059Z,49.57
2023-05-25T13:18:02.168Z,49.23
2023-05-25T13:20:32.385Z,49.59
2023-05-25T13:23:00.713Z,49.74
2023-05-25T13:25:29.795Z,49.66
2023-05-25T13:28:01.139Z,49.35
2023-05-25T13:30:29.216Z,49.53
2023-05-25T13:32:57.227Z,49.44
2023-05-25T13:35:41.631Z,49.96
2023-05-25T13:38:10.722Z,49.59
2023-05-25T13:40:38.701Z,49.80
2023-05-25T13:43:06.748Z,49.08
2023-05-25T13:45:34.710Z,49.18
2023-05-25T13:48:03.426Z,49.32
2023-05-25T13:50:31.495Z,49.28
2023-05-25T13:52:59.469Z,49.90
2023-05-25T13:55:27.436Z,49.84
2023-05-25T13:57:55.534Z,49.14
2023-05-25T14:00:23.645Z,49.57
2023-05-25T14:02:51.864Z,49.31
2023-05-25T14:05:20.313Z,49.41
2023-05-25T14:07:48.338Z,48.97
2023-05-25T14:10:16.620Z,49.30
2023-05-25T14:12:44.844Z,49.71
2023-05-25T14:15:12.995Z,49.89
2023-05-25T14:17:40.981Z,49.65
2023-05-25T14:20:09.788Z,49.72
2023-05-25T14:22:37.908Z,49.19
2023-05-25T14:25:06.543Z,48.78
2023-05-25T14:27:34.455Z,48.42
2023-05-25T14:30:02.525Z,48.73
2023-05-25T14:32:30.703Z,48.96
2023-05-25T14:34:58.923Z,49.13
2023-05-25T14:37:26.873Z,48.87
2023-05-25T14:39:54.867Z,49.16
2023-05-25T14:42:22.928Z,49.44
2023-05-25T14:44:50.860Z,49.23
2023-05-25T14:47:18.921Z,49.40
2023-05-25T14:49:46.950Z,49.21
2023-05-25T14:52:14.926Z,48.76
2023-05-25T14:54:44.879Z,48.83
2023-05-25T14:57:13.173Z,48.88
2023-05-25T14:59:41.231Z,48.42
2023-05-25T15:02:09.327Z,48.30
2023-05-25T15:04:37.442Z,48.80
2023-05-25T15:07:05.573Z,48.86
2023-05-25T15:09:33.998Z,49.00
2023-05-25T15:12:02.103Z,48.81
2023-05-25T15:14:30.080Z,49.03
2023-05-25T15:16:58.102Z,48.79
2023-05-25T15:19:26.018Z,48.61
2023-05-25T15:21:53.928Z,48.70
2023-05-25T15:24:21.844Z,48.78
2023-05-25T15:26:49.854Z,48.75
2023-05-25T15:29:17.927Z,48.40
2023-05-25T15:31:46.339Z,48.42
2023-05-25T15:34:15.802Z,48.75
2023-05-25T15:36:43.786Z,48.76
2023-05-25T15:39:13.151Z,48.42
2023-05-25T15:41:41.746Z,48.17
2023-05-25T15:44:12.684Z,48.56
2023-05-25T15:46:41.173Z,49.35
2023-05-25T15:49:12.176Z,49.10
2023-05-25T15:51:44.589Z,48.97
2023-05-25T15:54:14.594Z,48.97
2023-05-25T15:56:42.795Z,48.76
2023-05-25T15:59:12.575Z,48.57
2023-05-25T16:01:40.946Z,48.41
2023-05-25T16:04:09.218Z,48.54
2023-05-25T16:06:38.427Z,48.78
2023-05-25T16:09:06.776Z,48.61
2023-05-25T16:11:34.874Z,48.73
2023-05-25T16:14:02.816Z,48.39
2023-05-25T16:16:31.086Z,48.34
2023-05-25T16:18:59.242Z,48.43
2023-05-25T16:21:27.255Z,48.67
2023-05-25T16:23:55.222Z,48.64
2023-05-25T16:26:23.831Z,48.54
2023-05-25T16:28:51.813Z,48.17
2023-05-25T16:31:20.085Z,48.01
2023-05-25T16:33:48.923Z,48.27
2023-05-25T16:36:17.208Z,48.62
2023-05-25T16:38:46.025Z,48.36
2023-05-25T16:41:14.067Z,48.65
2023-05-25T16:43:42.046Z,48.64
2023-05-25T16:46:10.269Z,48.67
2023-05-25T16:48:38.602Z,48.68
2023-05-25T16:51:07.525Z,48.27
2023-05-25T16:53:35.515Z,48.15
2023-05-25T16:56:03.454Z,48.03
2023-05-25T16:58:31.465Z,48.26
2023-05-25T17:00:59.744Z,48.56
2023-05-25T17:03:27.827Z,48.87
2023-05-25T17:05:55.885Z,48.75
2023-05-25T17:08:24.085Z,48.84
2023-05-25T17:10:52.072Z,49.50
2023-05-25T17:13:21.058Z,49.05
2023-05-25T17:15:49.527Z,48.59
2023-05-25T17:18:17.854Z,49.10
2023-05-25T17:20:46.510Z,49.32
2023-05-25T17:23:16.881Z,48.89
2023-05-25T17:25:45.347Z,48.84
2023-05-25T17:28:13.867Z,48.73
2023-05-25T17:30:42.164Z,48.83
2023-05-25T17:33:10.610Z,49.07
2023-05-25T17:35:38.883Z,49.31
2023-05-25T17:38:07.131Z,49.18
2023-05-25T17:40:35.052Z,49.09
2023-05-25T17:43:03.398Z,49.22
2023-05-25T17:45:31.393Z,49.45
2023-05-25T17:47:59.762Z,49.58
2023-05-25T17:50:28.834Z,49.59
2023-05-25T17:52:56.905Z,49.73
2023-05-25T17:55:25.714Z,49.79
2023-05-25T17:57:53.984Z,49.81
2023-05-25T18:00:23.251Z,49.94
2023-05-25T18:02:52.274Z,49.82
2023-05-25T18:05:20.736Z,49.90
2023-05-25T18:07:49.080Z,49.97
2023-05-25T18:10:18.391Z,49.99
2023-05-25T18:12:49.259Z,50.13
2023-05-25T18:15:18.108Z,50.33
2023-05-25T18:17:46.487Z,50.46
2023-05-25T18:20:15.190Z,50.49
2023-05-25T18:22:44.224Z,50.54
2023-05-25T18:25:13.259Z,50.80
2023-05-25T18:27:41.676Z,50.86
2023-05-25T18:30:10.514Z,51.06
2023-05-25T18:32:38.849Z,50.99
2023-05-25T18:35:07.619Z,51.32
2023-05-25T18:37:36.512Z,51.38
2023-05-25T18:40:06.365Z,51.54
2023-05-25T18:42:35.034Z,51.58
2023-05-25T18:45:04.390Z,51.76
2023-05-25T18:47:34.141Z,51.83
2023-05-25T18:50:03.225Z,52.11
2023-05-25T18:52:31.515Z,52.04
2023-05-25T18:54:59.784Z,52.21
2023-05-25T18:57:28.774Z,52.40
2023-05-25T18:59:57.289Z,52.51
2023-05-25T19:02:26.223Z,52.64
2023-05-25T19:04:55.664Z,52.91
2023-05-25T19:07:24.754Z,53.15
2023-05-25T19:09:53.401Z,53.29
2023-05-25T19:12:21.708Z,53.51
2023-05-25T19:14:49.687Z,53.80
2023-05-25T19:17:17.697Z,54.06
2023-05-25T19:19:46.736Z,54.09
2023-05-25T19:22:15.692Z,54.17
2023-05-25T19:24:46.971Z,54.35
2023-05-25T19:27:16.677Z,54.49
2023-05-25T19:29:45.924Z,54.67
2023-05-25T19:32:16.540Z,54.81
2023-05-25T19:34:45.686Z,54.99
2023-05-25T19:37:14.317Z,55.07
2023-05-25T19:39:42.347Z,55.15
2023-05-25T19:42:10.809Z,55.16
2023-05-25T19:44:41.057Z,55.27
2023-05-25T19:47:09.034Z,55.44
2023-05-25T19:49:37.297Z,55.68
2023-05-25T19:52:06.020Z,55.75
2023-05-25T19:54:34.535Z,56.03
2023-05-25T19:57:03.001Z,55.98
2023-05-25T19:59:32.319Z,56.06
2023-05-25T20:02:00.680Z,56.19
2023-05-25T20:04:28.674Z,56.25
2023-05-25T20:06:57.433Z,56.65
2023-05-25T20:09:30.463Z,56.85
2023-05-25T20:11:59.415Z,57.01
2023-05-25T20:14:27.898Z,57.33
2023-05-25T20:16:56.713Z,57.34
2023-05-25T20:19:25.244Z,57.63
2023-05-25T20:22:00.196Z,57.66
2023-05-25T20:24:28.251Z,58.00
2023-05-25T20:26:56.917Z,58.05
2023-05-25T20:29:25.968Z,58.13
2023-05-25T20:31:54.484Z,58.30
2023-05-25T20:34:22.566Z,58.28
2023-05-25T20:36:51.147Z,58.46
2023-05-25T20:39:19.574Z,58.57
2023-05-25T20:41:47.579Z,58.76
2023-05-25T20:44:16.219Z,58.74
2023-05-25T20:46:44.316Z,58.87
2023-05-25T20:49:12.499Z,58.91
2023-05-25T20:51:41.857Z,59.09
2023-05-25T20:54:09.982Z,59.27
2023-05-25T20:56:38.420Z,59.39
2023-05-25T20:59:06.339Z,59.54
2023-05-25T21:01:34.391Z,59.84
2023-05-25T21:04:02.539Z,59.88
2023-05-25T21:06:30.789Z,60.04
2023-05-25T21:08:58.693Z,60.17
2023-05-25T21:11:26.787Z,60.26
2023-05-25T21:13:55.661Z,60.42
2023-05-25T21:16:23.677Z,60.53
2023-05-25T21:18:51.643Z,60.57
2023-05-25T21:21:19.565Z,60.70
2023-05-25T21:23:47.594Z,60.95
2023-05-25T21:26:15.676Z,61.00
2023-05-25T21:28:43.576Z,61.21
2023-05-25T21:31:11.561Z,61.23
2023-05-25T21:33:40.253Z,61.44
2023-05-25T21:36:08.299Z,61.42
2023-05-25T21:38:36.241Z,61.67
2023-05-25T21:41:04.239Z,61.78
2023-05-25T21:43:32.419Z,61.86
2023-05-25T21:46:00.431Z,62.00
2023-05-25T21:48:28.599Z,62.17
2023-05-25T21:50:56.610Z,62.17
2023-05-25T21:53:24.573Z,62.31
2023-05-25T21:55:53.027Z,62.41
2023-05-25T21:58:21.155Z,62.57
2023-05-25T22:00:49.244Z,62.62
2023-05-25T22:03:18.737Z,62.81
2023-05-25T22:05:46.974Z,62.95
2023-05-25T22:08:14.928Z,62.96
2023-05-25T22:10:43.071Z,63.01
2023-05-25T22:13:11.019Z,63.18
2023-05-25T22:15:38.919Z,63.22
2023-05-25T22:18:07.005Z,63.29
2023-05-25T22:20:38.512Z,63.50
2023-05-25T22:23:07.019Z,63.52
2023-05-25T22:25:34.959Z,63.66
2023-05-25T22:28:02.891Z,63.78
2023-05-25T22:30:30.769Z,63.86
2023-05-25T22:32:58.769Z,63.95
2023-05-25T22:35:26.796Z,64.00
2023-05-25T22:37:54.702Z,64.16
2023-05-25T22:40:22.684Z,64.27
2023-05-25T22:42:50.849Z,64.16
2023-05-25T22:45:21.141Z,64.34
2023-05-25T22:47:49.289Z,64.40
2023-05-25T22:50:17.418Z,64.40
2023-05-25T22:52:45.319Z,64.59
2023-05-25T22:55:13.413Z,64.57
2023-05-25T22:57:41.400Z,64.74
2023-05-25T23:00:09.675Z,64.77
2023-05-25T23:02:37.772Z,64.80
2023-05-25T23:05:06.353Z,64.95
2023-05-25T23:07:34.292Z,65.18
2023-05-25T23:10:02.892Z,65.15
2023-05-25T23:12:30.981Z,65.25
2023-05-25T23:15:01.231Z,65.29
2023-05-25T23:17:29.385Z,65.49
2023-05-25T23:19:57.358Z,65.52
2023-05-25T23:22:25.324Z,65.65
2023-05-25T23:24:53.597Z,65.70
2023-05-25T23:27:21.930Z,65.69
2023-05-25T23:29:49.823Z,65.57
2023-05-25T23:32:17.747Z,65.71
2023-05-25T23:34:45.698Z,65.75
2023-05-25T23:37:13.656Z,65.73
2023-05-25T23:39:41.574Z,65.83
2023-05-25T23:42:10.065Z,65.97
2023-05-25T23:44:38.022Z,65.93
2023-05-25T23:47:06.257Z,66.07
2023-05-25T23:49:34.355Z,66.02
2023-05-25T23:52:02.460Z,66.21
2023-05-25T23:54:30.671Z,66.12
2023-05-25T23:56:58.633Z,66.28
2023-05-25T23:59:26.608Z,66.23
